Time;durP1;ratioP1;P1;durP2;ratioP2;P2;SDS_P1;SDS_P2;PMS_P1;PMS_P2;Temp;Humidity;BMP_temperature;BMP_pressure;BME280_temperature;BME280_humidity;BME280_pressure;Samples;Min_cycle;Max_cycle;Signal;HPM_P1;HPM_P2
2022/10/01 00:01:05;;;;;;;11.05;8.75;;;10.80;99.90;;;;;;5051839;28;20368;-51
2022/10/01 00:03:30;;;;;;;12.52;9.32;;;10.80;99.90;;;;;;5052420;28;20021;-50
2022/10/01 00:06:09;;;;;;;8.77;7.78;;;10.80;99.90;;;;;;5052183;28;20512;-53
2022/10/01 00:08:37;;;;;;;9.07;8.15;;;10.90;99.90;;;;;;5050392;28;20033;-49
2022/10/01 00:11:12;;;;;;;10.73;8.98;;;10.90;99.90;;;;;;5051548;28;20013;-51
2022/10/01 00:13:38;;;;;;;11.25;8.50;;;10.90;99.90;;;;;;5050979;28;20021;-52
2022/10/01 00:16:06;;;;;;;16.25;9.32;;;10.90;99.90;;;;;;5051514;28;20110;-54
2022/10/01 00:18:35;;;;;;;12.57;9.27;;;10.90;99.90;;;;;;5053767;28;20021;-52
2022/10/01 00:21:05;;;;;;;12.65;9.00;;;10.90;99.90;;;;;;5070784;28;20535;-54
2022/10/01 00:23:30;;;;;;;13.10;8.90;;;11.00;99.90;;;;;;5071482;28;20012;-51
2022/10/01 00:26:07;;;;;;;11.60;9.18;;;11.00;99.90;;;;;;5071107;28;20371;-52
2022/10/01 00:28:33;;;;;;;10.95;8.57;;;10.90;99.90;;;;;;5070854;28;20027;-55
2022/10/01 00:30:58;;;;;;;17.33;9.43;;;10.90;99.90;;;;;;5066689;28;20380;-51
2022/10/01 00:33:25;;;;;;;13.73;10.55;;;10.80;99.90;;;;;;5051173;28;20025;-54
2022/10/01 00:35:53;;;;;;;11.15;9.98;;;10.80;99.90;;;;;;5051154;28;20603;-55
2022/10/01 00:38:19;;;;;;;13.13;9.57;;;10.80;99.90;;;;;;5051144;28;20025;-52
2022/10/01 00:40:45;;;;;;;13.32;9.65;;;10.80;99.90;;;;;;5050753;28;20091;-52
2022/10/01 00:43:25;;;;;;;19.23;9.65;;;10.70;99.90;;;;;;5051338;28;20103;-51
2022/10/01 00:45:54;;;;;;;13.82;10.32;;;10.70;99.90;;;;;;5055985;28;20048;-51
2022/10/01 00:48:22;;;;;;;11.98;9.55;;;10.70;99.90;;;;;;5071048;28;20091;-51
2022/10/01 00:50:48;;;;;;;10.07;8.90;;;10.70;99.90;;;;;;5070854;28;20032;-52
2022/10/01 00:53:15;;;;;;;11.23;9.05;;;10.70;99.90;;;;;;5071074;28;20108;-51
2022/10/01 00:55:52;;;;;;;14.88;10.40;;;10.80;99.90;;;;;;5070980;28;20027;-52
2022/10/01 00:58:19;;;;;;;16.30;9.77;;;10.80;99.90;;;;;;5070819;28;20112;-52
2022/10/01 01:00:45;;;;;;;11.20;9.10;;;10.80;99.90;;;;;;5069084;28;20021;-54
2022/10/01 01:03:11;;;;;;;17.35;11.43;;;10.80;99.90;;;;;;5069916;28;20025;-52
2022/10/01 01:05:38;;;;;;;12.35;10.25;;;10.80;99.90;;;;;;5070823;28;20025;-52
2022/10/01 01:08:04;;;;;;;14.75;10.20;;;10.80;99.90;;;;;;5069142;28;20021;-52
2022/10/01 01:11:02;;;;;;;16.65;10.77;;;10.80;99.90;;;;;;5070887;28;20032;-54
2022/10/01 01:13:34;;;;;;;12.98;9.90;;;10.70;99.90;;;;;;5069818;28;20029;-51
2022/10/01 01:16:19;;;;;;;17.88;10.82;;;10.80;99.90;;;;;;5069206;28;20388;-52
2022/10/01 01:18:48;;;;;;;20.13;11.88;;;10.70;99.90;;;;;;5069882;28;20540;-51
2022/10/01 01:21:34;;;;;;;13.55;10.57;;;10.70;99.90;;;;;;5069350;28;20426;-54
2022/10/01 01:24:09;;;;;;;11.90;9.63;;;10.70;99.90;;;;;;5056748;28;20361;-53
2022/10/01 01:26:46;;;;;;;12.63;10.40;;;10.70;99.90;;;;;;5054491;28;20017;-53
2022/10/01 01:29:20;;;;;;;11.30;9.77;;;10.90;99.90;;;;;;5054355;28;20033;-55
2022/10/01 01:31:46;;;;;;;;;;;10.90;99.90;;;;;;5055619;28;20032;-53
2022/10/01 01:34:20;;;;;;;13.93;9.38;;;10.80;99.90;;;;;;5054580;28;20007;-53
2022/10/01 01:36:53;;;;;;;9.63;8.63;;;10.90;99.90;;;;;;5054208;28;20036;-55
2022/10/01 01:39:22;;;;;;;16.23;10.50;;;10.90;99.90;;;;;;5054329;28;20568;-54
2022/10/01 01:41:56;;;;;;;17.85;10.10;;;10.80;99.90;;;;;;5053940;28;20057;-52
2022/10/01 01:44:23;;;;;;;;;;;10.80;99.90;;;;;;5054612;28;20013;-51
2022/10/01 01:46:50;;;;;;;12.95;9.77;;;10.70;99.90;;;;;;5070832;28;19912;-53
2022/10/01 01:49:19;;;;;;;12.73;10.50;;;10.70;99.90;;;;;;5072619;28;20138;-54
2022/10/01 01:51:55;;;;;;;13.40;10.38;;;10.80;99.90;;;;;;5073920;28;21008;-50
2022/10/01 01:54:21;;;;;;;12.07;10.50;;;10.80;99.90;;;;;;5072899;28;20016;-55
2022/10/01 01:56:49;;;;;;;13.15;10.73;;;10.90;99.90;;;;;;5073904;28;20375;-52
2022/10/01 01:59:17;;;;;;;13.02;11.43;;;10.90;99.90;;;;;;5072826;28;20032;-51
2022/10/01 02:01:44;;;;;;;28.10;11.48;;;10.80;99.90;;;;;;5073622;28;20028;-55
2022/10/01 02:04:45;;;;;;;16.70;12.10;;;10.70;99.90;;;;;;5057290;28;20025;-53
2022/10/01 02:07:29;;;;;;;16.83;11.75;;;10.70;99.90;;;;;;5073866;28;20456;-54
2022/10/01 02:10:13;;;;;;;22.48;12.45;;;10.70;99.90;;;;;;5073630;28;20424;-52
2022/10/01 02:13:30;;;;;;;15.65;12.00;;;10.70;99.90;;;;;;5073585;28;20032;-53
2022/10/01 02:16:17;;;;;;;18.77;10.80;;;10.60;99.90;;;;;;5072836;28;20181;-53
2022/10/01 02:18:49;;;;;;;12.75;10.32;;;10.80;99.90;;;;;;5073344;28;20368;-54
2022/10/01 02:21:18;;;;;;;13.43;10.32;;;10.80;99.90;;;;;;5071435;28;20028;-55
2022/10/01 02:24:00;;;;;;;11.70;9.65;;;10.80;99.90;;;;;;5053578;28;20142;-52
2022/10/01 02:26:29;;;;;;;13.25;10.15;;;10.80;99.90;;;;;;5053359;28;20543;-52
2022/10/01 02:29:00;;;;;;;22.52;10.20;;;10.80;99.90;;;;;;5053009;28;20033;-51
2022/10/01 02:31:28;;;;;;;17.73;10.15;;;10.70;99.90;;;;;;5053316;28;20104;-53
2022/10/01 02:33:57;;;;;;;13.85;10.38;;;10.70;99.90;;;;;;5053231;28;20023;-52
2022/10/01 02:36:23;;;;;;;21.45;11.05;;;10.60;99.90;;;;;;5053081;28;20448;-51
2022/10/01 02:38:51;;;;;;;16.90;11.40;;;10.60;99.90;;;;;;5051962;28;20373;-52
2022/10/01 02:41:23;;;;;;;14.02;11.13;;;10.50;99.90;;;;;;5053173;28;20078;-53
2022/10/01 02:43:56;;;;;;;12.80;11.33;;;10.50;99.90;;;;;;5053032;28;20354;-54
2022/10/01 02:46:53;;;;;;;14.80;10.68;;;10.50;99.90;;;;;;5051695;28;20575;-52
2022/10/01 02:49:19;;;;;;;15.85;10.55;;;10.50;99.90;;;;;;5051733;28;20090;-51
2022/10/01 02:51:52;;;;;;;13.88;11.50;;;10.60;99.90;;;;;;5061032;28;20040;-52
2022/10/01 02:54:33;;;;;;;17.13;11.68;;;10.60;99.90;;;;;;5072780;28;20475;-53
2022/10/01 02:59:44;;;;;;;14.85;12.93;;;10.50;99.90;;;;;;5072251;28;20673;-52
2022/10/01 03:02:10;;;;;;;15.32;12.63;;;10.50;99.90;;;;;;5072348;28;20120;-52
2022/10/01 03:04:36;;;;;;;20.95;12.43;;;10.50;99.90;;;;;;5072204;28;20024;-51
2022/10/01 03:07:02;;;;;;;14.02;12.50;;;10.50;99.90;;;;;;5072175;28;20027;-51
2022/10/01 03:09:30;;;;;;;15.13;11.80;;;10.40;99.90;;;;;;5072403;28;20040;-53
2022/10/01 03:11:56;;;;;;;14.30;11.10;;;10.50;99.90;;;;;;5071327;28;20031;-53
2022/10/01 03:14:23;;;;;;;12.13;10.82;;;10.40;99.90;;;;;;5072746;28;20022;-52
2022/10/01 03:16:53;;;;;;;11.45;9.77;;;10.40;99.90;;;;;;5072293;28;20036;-51
2022/10/01 03:19:19;;;;;;;12.10;10.90;;;10.50;99.90;;;;;;5072485;28;20028;-53
2022/10/01 03:21:44;;;;;;;13.27;10.43;;;10.50;99.90;;;;;;5059250;28;20045;-54
2022/10/01 03:24:10;;;;;;;19.67;11.65;;;10.60;99.90;;;;;;5052450;28;20133;-53
2022/10/01 03:26:36;;;;;;;17.25;11.70;;;10.60;99.90;;;;;;5052513;28;20571;-55
2022/10/01 03:29:03;;;;;;;15.23;11.50;;;10.60;99.90;;;;;;5052364;28;20032;-52
2022/10/01 03:31:29;;;;;;;17.08;13.15;;;10.60;99.90;;;;;;5052447;28;20403;-55
2022/10/01 03:34:12;;;;;;;18.63;11.50;;;10.60;99.90;;;;;;5052299;28;20017;-56
2022/10/01 03:36:38;;;;;;;17.92;12.82;;;10.50;99.90;;;;;;5052311;28;20021;-53
2022/10/01 03:39:04;;;;;;;19.85;12.90;;;10.50;99.90;;;;;;5052060;28;20078;-55
2022/10/01 03:41:30;;;;;;;17.30;13.32;;;10.50;99.90;;;;;;5052201;28;20092;-54
2022/10/01 03:43:55;;;;;;;15.75;12.82;;;10.40;99.90;;;;;;5052121;28;20071;-51
2022/10/01 03:46:21;;;;;;;17.02;12.73;;;10.40;99.90;;;;;;5052045;28;20120;-54
2022/10/01 03:48:48;;;;;;;22.13;13.13;;;10.40;99.90;;;;;;5049868;28;20037;-53
2022/10/01 03:51:14;;;;;;;17.02;13.40;;;10.40;99.90;;;;;;5043141;28;20143;-51
2022/10/01 03:53:39;;;;;;;14.73;12.00;;;10.40;99.90;;;;;;5071948;28;20084;-52
2022/10/01 03:56:05;;;;;;;14.18;11.00;;;10.40;99.90;;;;;;5072056;28;20375;-52
2022/10/01 03:58:31;;;;;;;18.17;11.52;;;10.40;99.90;;;;;;5070843;28;20639;-52
2022/10/01 04:00:57;;;;;;;17.85;11.48;;;10.40;99.90;;;;;;5071771;28;20115;-54
2022/10/01 04:03:23;;;;;;;36.05;12.05;;;10.40;99.90;;;;;;5070739;28;20025;-52
2022/10/01 04:05:48;;;;;;;12.20;10.98;;;10.40;99.90;;;;;;5051549;28;20052;-54
2022/10/01 04:08:14;;;;;;;12.57;10.32;;;10.30;99.90;;;;;;5051589;28;20037;-52
2022/10/01 04:10:40;;;;;;;18.77;11.50;;;10.40;99.90;;;;;;5051819;28;20044;-55
2022/10/01 04:13:06;;;;;;;15.80;11.48;;;10.40;99.90;;;;;;5051599;28;20108;-52
2022/10/01 04:15:32;;;;;;;17.27;11.38;;;10.40;99.90;;;;;;5051566;28;20036;-53
2022/10/01 04:17:58;;;;;;;17.52;11.18;;;10.30;99.90;;;;;;5051496;28;20376;-52
2022/10/01 04:20:24;;;;;;;11.70;10.50;;;10.30;99.90;;;;;;5070701;28;20039;-52
2022/10/01 04:22:50;;;;;;;12.10;10.48;;;10.40;99.90;;;;;;5071658;28;20021;-53
2022/10/01 04:25:16;;;;;;;13.02;9.80;;;10.50;99.90;;;;;;5070205;28;20043;-52
2022/10/01 04:27:59;;;;;;;12.85;9.45;;;10.50;99.90;;;;;;5071642;28;20016;-54
2022/10/01 04:30:28;;;;;;;11.20;10.13;;;10.60;99.90;;;;;;5071644;28;20033;-54
2022/10/01 04:32:54;;;;;;;12.45;10.95;;;10.60;99.90;;;;;;5070549;28;20036;-52
2022/10/01 04:35:21;;;;;;;19.48;11.13;;;10.60;99.90;;;;;;5051522;28;20025;-51
2022/10/01 04:38:04;;;;;;;16.02;11.55;;;10.50;99.90;;;;;;5051408;28;20025;-53
2022/10/01 04:40:32;;;;;;;15.40;12.27;;;10.40;99.90;;;;;;5050106;28;20029;-53
2022/10/01 04:42:57;;;;;;;24.33;12.50;;;10.40;99.90;;;;;;5050629;28;20029;-53
2022/10/01 04:45:23;;;;;;;16.60;12.85;;;10.40;99.90;;;;;;5051329;28;20028;-53
2022/10/01 04:47:51;;;;;;;13.55;11.95;;;10.40;99.90;;;;;;5051065;28;20021;-53
2022/10/01 04:50:17;;;;;;;17.50;12.35;;;10.40;99.90;;;;;;5051448;28;20452;-54
2022/10/01 04:52:43;;;;;;;18.77;11.70;;;10.40;99.90;;;;;;5051325;28;20017;-52
2022/10/01 04:55:09;;;;;;;14.73;12.27;;;10.30;99.90;;;;;;5051179;28;20346;-50
2022/10/01 04:57:37;;;;;;;14.20;11.55;;;10.40;99.90;;;;;;5051260;28;20024;-54
2022/10/01 05:00:05;;;;;;;15.52;11.40;;;10.30;99.90;;;;;;5051381;28;20372;-53
2022/10/01 05:02:33;;;;;;;18.27;12.65;;;10.30;99.90;;;;;;5056789;28;20017;-55
2022/10/01 05:05:02;;;;;;;16.92;11.63;;;10.30;99.90;;;;;;5074703;28;20027;-52
2022/10/01 05:07:30;;;;;;;17.40;12.18;;;10.20;99.90;;;;;;5075172;28;20025;-53
2022/10/01 05:09:56;;;;;;;21.02;12.52;;;10.30;99.90;;;;;;5074952;28;20051;-52
2022/10/01 05:12:24;;;;;;;15.75;13.30;;;10.20;99.90;;;;;;5074804;28;20056;-52
2022/10/01 05:14:54;;;;;;;16.83;12.80;;;10.20;99.90;;;;;;5074691;28;20107;-53
2022/10/01 05:17:21;;;;;;;22.35;13.95;;;10.20;99.90;;;;;;5073264;28;20047;-53
2022/10/01 05:19:47;;;;;;;15.30;12.05;;;10.20;99.90;;;;;;5074500;28;20032;-54
2022/10/01 05:22:14;;;;;;;14.65;12.45;;;10.20;99.90;;;;;;5074692;28;20353;-52
2022/10/01 05:24:39;;;;;;;13.63;12.05;;;10.20;99.90;;;;;;5074859;28;20025;-54
2022/10/01 05:27:09;;;;;;;21.48;12.70;;;10.30;99.90;;;;;;5074620;28;20017;-53
2022/10/01 05:29:35;;;;;;;19.35;12.50;;;10.40;99.90;;;;;;5074760;28;20674;-52
2022/10/01 05:32:01;;;;;;;24.33;13.55;;;10.40;99.90;;;;;;5074455;28;20115;-54
2022/10/01 05:34:27;;;;;;;20.60;12.25;;;10.50;99.90;;;;;;5057061;28;20132;-52
2022/10/01 05:36:53;;;;;;;17.90;11.90;;;10.50;99.90;;;;;;5054353;28;20043;-51
2022/10/01 05:39:19;;;;;;;18.58;14.30;;;10.50;99.90;;;;;;5054472;28;20080;-51
2022/10/01 05:41:45;;;;;;;19.63;12.65;;;10.50;99.90;;;;;;5054287;28;20056;-54
2022/10/01 05:44:10;;;;;;;13.50;12.00;;;10.60;99.90;;;;;;5054440;28;20028;-53
2022/10/01 05:46:36;;;;;;;19.75;13.32;;;10.60;99.90;;;;;;5054456;28;20506;-52
2022/10/01 05:49:02;;;;;;;17.20;11.77;;;10.60;99.90;;;;;;5054046;28;20541;-52
2022/10/01 05:51:29;;;;;;;16.92;11.90;;;10.60;99.90;;;;;;5054363;28;20418;-53
2022/10/01 05:53:57;;;;;;;17.17;12.15;;;10.70;99.90;;;;;;5053800;28;20071;-56
2022/10/01 05:56:23;;;;;;;17.98;11.93;;;10.80;99.90;;;;;;5070335;28;20021;-52
2022/10/01 05:58:49;;;;;;;13.02;11.10;;;10.80;99.90;;;;;;5073515;28;20032;-54
2022/10/01 06:01:15;;;;;;;12.38;10.70;;;11.00;99.90;;;;;;5072899;28;20029;-53
2022/10/01 06:03:41;;;;;;;14.77;9.45;;;11.10;99.90;;;;;;5074031;28;20013;-51
2022/10/01 06:06:07;;;;;;;11.15;9.25;;;11.30;99.90;;;;;;5073579;28;20025;-52
2022/10/01 06:08:33;;;;;;;12.07;10.35;;;11.40;99.90;;;;;;5073180;28;20091;-52
2022/10/01 06:11:01;;;;;;;12.05;9.32;;;11.40;99.90;;;;;;5073009;28;20031;-51
2022/10/01 06:13:29;;;;;;;10.32;8.65;;;11.40;99.90;;;;;;5059674;28;20053;-52
2022/10/01 06:15:55;;;;;;;9.35;8.40;;;11.50;99.90;;;;;;5053602;28;20037;-51
2022/10/01 06:18:21;;;;;;;12.82;8.68;;;11.50;99.90;;;;;;5053843;28;20045;-50
2022/10/01 06:20:47;;;;;;;10.55;8.88;;;11.60;99.90;;;;;;5053379;28;20032;-52
2022/10/01 06:23:13;;;;;;;12.77;9.57;;;11.50;99.90;;;;;;5053814;28;20423;-54
2022/10/01 06:25:43;;;;;;;11.77;9.48;;;11.40;99.90;;;;;;5053732;28;20107;-52
2022/10/01 06:28:12;;;;;;;11.23;10.07;;;11.40;99.90;;;;;;5052826;28;20028;-51
2022/10/01 06:30:39;;;;;;;14.40;11.40;;;11.30;99.90;;;;;;5052604;28;20107;-51
2022/10/01 06:33:10;;;;;;;10.00;9.00;;;11.30;99.90;;;;;;5052733;28;20029;-53
2022/10/01 06:35:43;;;;;;;16.55;10.88;;;11.50;99.90;;;;;;5052888;28;20037;-56
2022/10/01 06:38:10;;;;;;;12.93;10.13;;;11.60;99.90;;;;;;5052585;28;20041;-54
2022/10/01 06:40:36;;;;;;;8.90;8.07;;;11.60;99.90;;;;;;5064061;28;20036;-57
2022/10/01 06:43:02;;;;;;;12.57;11.00;;;11.80;99.90;;;;;;5073287;28;20367;-57
2022/10/01 06:45:29;;;;;;;16.15;11.57;;;11.80;99.90;;;;;;5073520;28;20359;-55
2022/10/01 06:47:56;;;;;;;13.23;9.95;;;11.80;99.90;;;;;;5072875;28;20368;-55
2022/10/01 06:50:23;;;;;;;14.52;9.43;;;11.80;99.90;;;;;;5073099;28;20074;-55
2022/10/01 06:52:50;;;;;;;17.90;9.10;;;11.70;99.90;;;;;;5072188;28;20068;-52
2022/10/01 06:55:17;;;;;;;15.20;10.45;;;11.70;99.90;;;;;;5061651;28;20025;-56
2022/10/01 06:57:44;;;;;;;10.55;9.25;;;11.70;99.90;;;;;;5052977;28;20036;-56
2022/10/01 07:00:10;;;;;;;11.02;9.27;;;11.70;99.90;;;;;;5051214;28;20021;-52
2022/10/01 07:02:36;;;;;;;14.48;9.68;;;11.70;99.90;;;;;;5052535;28;20028;-49
2022/10/01 07:05:02;;;;;;;12.93;8.88;;;11.70;99.90;;;;;;5052749;28;20021;-55
2022/10/01 07:07:32;;;;;;;13.70;9.20;;;11.80;99.90;;;;;;5052662;28;20017;-53
2022/10/01 07:09:58;;;;;;;34.65;10.95;;;11.80;99.90;;;;;;5062934;28;20044;-52
2022/10/01 07:12:24;;;;;;;10.60;9.45;;;11.70;99.90;;;;;;5072620;28;20379;-55
2022/10/01 07:14:50;;;;;;;11.43;9.20;;;11.90;99.90;;;;;;5070761;28;20107;-52
2022/10/01 07:17:15;;;;;;;14.27;9.05;;;12.00;99.90;;;;;;5060746;28;20116;-51
2022/10/01 07:19:41;;;;;;;10.48;9.48;;;12.00;99.90;;;;;;5068645;28;20079;-51
2022/10/01 07:22:07;;;;;;;13.55;9.32;;;12.30;99.90;;;;;;5072130;28;20021;-52
2022/10/01 07:24:33;;;;;;;9.32;8.35;;;12.40;99.90;;;;;;5062513;28;20017;-53
2022/10/01 07:26:59;;;;;;;10.77;9.15;;;12.60;99.90;;;;;;5052371;28;20075;-52
2022/10/01 07:29:25;;;;;;;13.20;9.80;;;12.80;99.90;;;;;;5052307;28;20029;-51
2022/10/01 07:31:56;;;;;;;10.35;9.07;;;12.80;99.90;;;;;;5051636;28;20037;-50
2022/10/01 07:34:23;;;;;;;9.57;8.52;;;12.80;99.90;;;;;;5052259;28;20392;-52
2022/10/01 07:36:49;;;;;;;9.10;8.20;;;13.20;99.90;;;;;;5052092;28;20452;-52
2022/10/01 07:39:15;;;;;;;9.98;8.02;;;13.30;99.90;;;;;;5051818;28;20029;-55
2022/10/01 07:41:41;;;;;;;11.07;8.35;;;13.50;99.90;;;;;;5052241;28;20035;-51
2022/10/01 07:44:08;;;;;;;8.70;7.80;;;13.70;99.90;;;;;;5051100;28;20028;-52
2022/10/01 07:46:34;;;;;;;8.35;7.25;;;13.80;99.90;;;;;;5057324;28;20379;-55
2022/10/01 07:49:00;;;;;;;7.97;6.95;;;14.00;99.90;;;;;;5070058;28;20036;-52
2022/10/01 07:51:25;;;;;;;6.07;5.47;;;14.00;99.90;;;;;;5070478;28;20357;-52
2022/10/01 07:53:51;;;;;;;7.22;6.50;;;14.10;99.90;;;;;;5071882;28;20017;-51
2022/10/01 07:56:17;;;;;;;10.00;7.43;;;14.10;99.90;;;;;;5071858;28;20019;-53
2022/10/01 07:58:43;;;;;;;7.30;5.68;;;14.20;99.90;;;;;;5071715;28;20036;-54
2022/10/01 08:01:08;;;;;;;6.40;5.43;;;14.30;99.90;;;;;;5069640;28;20024;-51
2022/10/01 08:03:34;;;;;;;10.15;5.47;;;14.40;99.90;;;;;;5071229;28;20027;-52
2022/10/01 08:06:05;;;;;;;6.05;5.47;;;14.50;99.90;;;;;;5071064;28;20020;-54
2022/10/01 08:08:31;;;;;;;7.60;6.05;;;14.70;99.90;;;;;;5071413;28;20048;-51
2022/10/01 08:10:57;;;;;;;10.70;6.22;;;15.00;99.90;;;;;;5071521;28;20059;-53
2022/10/01 08:13:23;;;;;;;6.53;4.88;;;15.00;99.90;;;;;;5071406;28;20059;-53
2022/10/01 08:15:52;;;;;;;12.23;5.25;;;14.80;99.90;;;;;;5061236;28;20035;-51
2022/10/01 08:18:19;;;;;;;5.53;4.80;;;14.90;99.90;;;;;;5051526;28;20032;-50
2022/10/01 08:20:45;;;;;;;6.15;5.43;;;14.90;99.90;;;;;;5051175;28;20045;-51
2022/10/01 08:23:13;;;;;;;5.95;4.47;;;15.20;99.90;;;;;;5051344;28;20052;-54
2022/10/01 08:25:40;;;;;;;6.15;4.45;;;15.30;99.90;;;;;;5051374;28;20013;-53
2022/10/01 08:28:07;;;;;;;5.35;4.85;;;15.40;99.90;;;;;;5051137;28;20021;-54
2022/10/01 08:30:34;;;;;;;6.57;4.85;;;15.40;99.90;;;;;;5060807;28;20032;-52
2022/10/01 08:33:03;;;;;;;3.30;3.03;;;15.40;99.90;;;;;;5071487;28;20457;-56
2022/10/01 08:35:29;;;;;;;3.30;3.00;;;15.40;99.90;;;;;;5070618;28;20016;-54
2022/10/01 08:38:10;;;;;;;3.28;2.97;;;15.50;99.90;;;;;;5070530;28;20471;-54
2022/10/01 08:40:47;;;;;;;3.50;2.58;;;15.70;99.90;;;;;;5070991;28;20048;-52
2022/10/01 08:43:21;;;;;;;9.18;2.88;;;15.70;99.90;;;;;;5071044;28;20024;-50
2022/10/01 08:45:49;;;;;;;3.47;2.50;;;15.80;99.90;;;;;;5070543;28;20429;-51
2022/10/01 08:48:30;;;;;;;3.47;3.17;;;15.60;99.90;;;;;;5071208;28;20043;-52
2022/10/01 08:50:56;;;;;;;3.80;3.08;;;16.00;99.90;;;;;;5070554;28;20028;-53
2022/10/01 08:53:59;;;;;;;4.63;3.08;;;16.20;99.90;;;;;;5070974;28;20031;-51
2022/10/01 08:56:35;;;;;;;3.40;3.13;;;16.10;99.90;;;;;;5070434;28;20114;-52
2022/10/01 08:59:38;;;;;;;4.20;3.08;;;16.20;99.90;;;;;;5069551;28;20025;-52
2022/10/01 09:02:16;;;;;;;3.90;3.60;;;16.60;99.90;;;;;;5054501;28;20086;-53
2022/10/01 09:04:42;;;;;;;3.63;3.33;;;16.60;99.90;;;;;;5050910;28;20100;-52
2022/10/01 09:07:15;;;;;;;7.30;3.88;;;16.50;99.90;;;;;;5050931;28;20100;-52
2022/10/01 09:09:55;;;;;;;7.47;3.75;;;16.50;99.90;;;;;;5050959;28;20045;-52
2022/10/01 09:12:44;;;;;;;4.30;3.55;;;16.80;99.90;;;;;;5051094;28;20422;-52
2022/10/01 09:15:28;;;;;;;3.83;3.08;;;16.70;99.90;;;;;;5050913;28;20027;-55
2022/10/01 09:18:03;;;;;;;5.47;3.15;;;16.50;99.90;;;;;;5050173;28;20083;-55
2022/10/01 09:20:35;;;;;;;3.15;2.85;;;16.80;99.90;;;;;;5050194;28;20357;-56
2022/10/01 09:23:16;;;;;;;3.25;2.63;;;16.90;99.90;;;;;;5050696;28;20093;-53
2022/10/01 09:25:43;;;;;;;2.50;2.33;;;16.50;99.90;;;;;;5050677;28;20021;-52
2022/10/01 09:28:17;;;;;;;3.65;2.60;;;16.70;99.90;;;;;;5050802;28;20368;-54
2022/10/01 09:30:55;;;;;;;5.10;2.60;;;16.70;99.90;;;;;;5065246;28;20059;-55
2022/10/01 09:33:24;;;;;;;3.17;2.88;;;16.70;99.90;;;;;;5070008;28;20056;-54
2022/10/01 09:36:13;;;;;;;3.20;2.90;;;16.40;99.80;;;;;;5070213;28;20027;-55
2022/10/01 09:38:50;;;;;;;4.88;2.70;;;15.80;99.90;;;;;;5070676;28;20370;-54
2022/10/01 09:41:17;;;;;;;3.58;2.75;;;16.10;99.90;;;;;;5070364;28;20037;-54
2022/10/01 09:43:43;;;;;;;2.80;2.60;;;16.30;99.90;;;;;;5069538;28;20021;-55
2022/10/01 09:46:13;;;;;;;5.20;4.15;;;16.40;99.90;;;;;;5050431;28;20025;-55
2022/10/01 09:48:43;;;;;;;7.85;2.13;;;16.50;99.30;;;;;;5054088;28;20399;-51
2022/10/01 09:51:21;;;;;;;1.85;1.70;;;17.00;99.90;;;;;;5054100;28;20494;-55
2022/10/01 09:54:02;;;;;;;3.70;1.88;;;17.30;98.60;;;;;;5054178;28;20111;-57
2022/10/01 09:56:38;;;;;;;2.50;1.80;;;17.30;97.70;;;;;;5053679;28;20021;-56
2022/10/01 09:59:11;;;;;;;2.53;2.08;;;17.30;98.50;;;;;;5058700;28;20431;-52
2022/10/01 10:01:50;;;;;;;2.20;2.00;;;17.10;97.10;;;;;;5072663;28;20514;-52
2022/10/01 10:04:22;;;;;;;2.83;1.67;;;17.10;98.10;;;;;;5073305;28;20059;-62
2022/10/01 10:06:58;;;;;;;3.25;1.70;;;17.20;99.00;;;;;;5072765;28;20027;-51
2022/10/01 10:09:28;;;;;;;2.22;1.90;;;17.10;98.80;;;;;;5073453;28;20052;-57
2022/10/01 10:11:55;;;;;;;3.60;1.52;;;16.70;97.30;;;;;;5073735;28;20426;-54
2022/10/01 10:14:29;;;;;;;4.90;1.58;;;17.10;99.00;;;;;;5073429;28;20020;-56
2022/10/01 10:16:55;;;;;;;3.13;1.70;;;17.10;96.30;;;;;;5072980;28;20039;-55
2022/10/01 10:19:24;;;;;;;1.77;1.45;;;16.90;96.60;;;;;;5073212;28;20024;-55
2022/10/01 10:21:59;;;;;;;1.65;1.55;;;17.20;96.60;;;;;;5073245;28;20024;-60
2022/10/01 10:24:33;;;;;;;1.90;1.60;;;17.00;96.10;;;;;;5072315;28;20023;-58
2022/10/01 10:27:02;;;;;;;2.08;1.50;;;16.90;96.00;;;;;;5073127;28;20024;-57
2022/10/01 10:29:33;;;;;;;4.63;1.60;;;17.00;95.40;;;;;;5064490;28;20013;-54
2022/10/01 10:32:03;;;;;;;6.95;1.77;;;17.30;96.40;;;;;;5053261;28;20025;-52
2022/10/01 10:34:37;;;;;;;3.92;1.85;;;17.40;94.90;;;;;;5045228;28;20033;-55
2022/10/01 10:37:09;;;;;;;2.38;2.17;;;17.00;94.40;;;;;;5042282;28;20029;-53
2022/10/01 10:39:43;;;;;;;5.10;1.52;;;17.10;95.00;;;;;;5039025;28;20041;-54
2022/10/01 10:42:13;;;;;;;;;;;17.10;95.40;;;;;;5052975;28;20556;-55
2022/10/01 10:44:42;;;;;;;1.60;1.50;;;17.40;95.90;;;;;;5043603;28;19909;-52
2022/10/01 10:47:13;;;;;;;4.40;1.40;;;17.60;96.30;;;;;;5042983;28;20025;-56
2022/10/01 10:49:45;;;;;;;3.60;1.35;;;17.70;95.70;;;;;;5042671;28;20040;-57
2022/10/01 10:52:32;;;;;;;1.75;1.55;;;17.60;96.20;;;;;;5042423;28;20029;-56
2022/10/01 10:55:00;;;;;;;1.58;1.48;;;17.70;94.20;;;;;;5041303;28;20049;-55
2022/10/01 10:57:33;;;;;;;1.50;1.40;;;17.40;94.20;;;;;;5041538;28;20082;-55
2022/10/01 11:00:10;;;;;;;5.57;1.50;;;17.50;96.00;;;;;;5041943;28;20540;-57
2022/10/01 11:02:39;;;;;;;3.28;1.60;;;17.40;95.60;;;;;;5042025;28;20037;-53
2022/10/01 11:05:27;;;;;;;1.38;1.27;;;17.50;96.10;;;;;;5042149;28;20036;-54
2022/10/01 11:07:57;;;;;;;2.88;1.58;;;17.70;94.80;;;;;;5039951;28;20115;-56
2022/10/01 11:10:27;;;;;;;1.48;1.38;;;17.70;93.50;;;;;;5041205;28;20442;-57
2022/10/01 11:13:13;;;;;;;1.73;1.10;;;17.50;94.50;;;;;;5040469;28;20356;-56
2022/10/01 11:15:51;;;;;;;1.52;1.42;;;17.50;94.90;;;;;;5041453;28;20045;-56
2022/10/01 11:18:35;;;;;;;2.10;1.58;;;17.30;95.00;;;;;;5044704;28;20499;-55
2022/10/01 11:21:10;;;;;;;2.28;1.50;;;17.60;95.70;;;;;;5042091;28;20041;-56
2022/10/01 11:24:22;;;;;;;2.38;1.40;;;17.50;92.80;;;;;;5040828;28;20029;-57
2022/10/01 11:27:02;;;;;;;1.30;1.15;;;17.10;93.40;;;;;;5040582;28;20037;-56
2022/10/01 11:29:52;;;;;;;5.43;1.65;;;16.80;94.30;;;;;;5040784;28;20029;-57
2022/10/01 11:32:28;;;;;;;1.75;1.65;;;16.60;94.90;;;;;;5048363;28;20029;-56
2022/10/01 11:35:32;;;;;;;4.88;2.13;;;16.70;95.50;;;;;;5041090;28;20086;-57
2022/10/01 11:38:12;;;;;;;8.40;2.70;;;16.60;95.20;;;;;;5044749;28;20031;-55
2022/10/01 11:40:44;;;;;;;4.85;1.70;;;16.60;94.70;;;;;;5040596;28;20029;-56
2022/10/01 11:43:22;;;;;;;2.13;1.95;;;16.70;96.80;;;;;;5041073;28;20028;-54
2022/10/01 11:46:10;;;;;;;2.78;1.80;;;17.00;95.60;;;;;;5040379;28;20115;-55
2022/10/01 11:48:42;;;;;;;1.73;1.63;;;17.10;95.90;;;;;;5039219;28;20108;-55
2022/10/01 11:51:22;;;;;;;2.17;1.55;;;17.20;96.20;;;;;;5041723;28;20116;-56
2022/10/01 11:53:58;;;;;;;1.63;1.40;;;17.00;94.30;;;;;;5040540;28;20399;-53
2022/10/01 11:59:19;;;;;;;2.13;1.55;;;17.20;94.20;;;;;;5040438;28;20120;-57
2022/10/01 12:01:48;;;;;;;1.55;1.42;;;17.20;94.50;;;;;;5039652;28;20128;-55
2022/10/01 12:04:42;;;;;;;2.45;1.58;;;17.50;95.30;;;;;;5040007;28;20029;-56
2022/10/01 12:07:21;;;;;;;4.50;2.05;;;17.10;95.00;;;;;;5040031;28;20018;-56
2022/10/01 12:10:05;;;;;;;4.45;1.30;;;17.10;96.10;;;;;;5038146;28;20389;-56
2022/10/01 12:12:37;;;;;;;1.55;1.25;;;16.90;96.20;;;;;;5040333;28;20040;-57
2022/10/01 12:15:11;;;;;;;1.55;1.45;;;16.50;96.40;;;;;;5039648;28;20033;-56
2022/10/01 12:17:45;;;;;;;1.30;1.25;;;16.30;98.10;;;;;;5039852;28;20721;-57
2022/10/01 12:20:43;;;;;;;1.50;1.40;;;16.00;97.20;;;;;;5040014;28;20516;-55
2022/10/01 12:23:16;;;;;;;1.42;1.33;;;15.90;97.10;;;;;;5045587;28;20040;-55
2022/10/01 12:25:49;;;;;;;;;;;15.70;98.30;;;;;;5059722;28;20028;-56
2022/10/01 12:28:24;;;;;;;3.33;1.80;;;15.90;98.00;;;;;;5053619;28;19940;-56
2022/10/01 12:31:25;;;;;;;3.38;3.10;;;16.00;99.90;;;;;;5059323;28;20028;-55
2022/10/01 12:33:59;;;;;;;4.05;3.75;;;15.70;99.90;;;;;;5045164;28;20033;-55
2022/10/01 12:36:45;;;;;;;4.07;2.85;;;15.60;99.90;;;;;;5041522;28;20032;-55
2022/10/01 12:39:17;;;;;;;5.35;3.50;;;15.70;99.90;;;;;;5041990;28;20425;-55
2022/10/01 12:42:04;;;;;;;6.00;2.15;;;15.50;99.90;;;;;;5059543;28;20094;-55
2022/10/01 12:44:43;;;;;;;12.20;6.68;;;15.60;99.90;;;;;;5040935;28;20021;-56
2022/10/01 12:47:45;;;;;;;6.53;3.90;;;15.30;99.90;;;;;;5047576;28;20059;-55
2022/10/01 12:50:28;;;;;;;2.67;1.90;;;15.10;99.90;;;;;;5055223;28;20090;-55
2022/10/01 12:53:21;;;;;;;14.95;6.88;;;15.20;99.90;;;;;;5059813;28;20020;-54
2022/10/01 12:56:09;;;;;;;3.17;2.45;;;15.20;99.90;;;;;;5047815;28;20036;-56
2022/10/01 12:58:52;;;;;;;2.05;1.95;;;15.10;99.90;;;;;;5039748;28;20040;-56
2022/10/01 13:01:18;;;;;;;4.72;2.33;;;14.90;99.90;;;;;;5056349;28;20748;-56
2022/10/01 13:04:13;;;;;;;2.25;1.73;;;14.80;99.90;;;;;;5040099;28;20029;-55
2022/10/01 13:07:24;;;;;;;1.40;1.30;;;14.70;99.90;;;;;;5039038;28;20037;-56